sensor_id;sensor_type;location;lat;lon;timestamp;P1;durP1;ratioP1;P2;durP2;ratioP2
3443;SDS011;1736;52.068;6.968;2022-10-22T00:00:45;10.17;;;6.80;;
3443;SDS011;1736;52.068;6.968;2022-10-22T00:03:12;12.20;;;7.10;;
3443;SDS011;1736;52.068;6.968;2022-10-22T00:05:38;8.97;;;6.30;;
3443;SDS011;1736;52.068;6.968;2022-10-22T00:08:05;11.90;;;6.90;;
3443;SDS011;1736;52.068;6.968;2022-10-22T00:10:33;9.77;;;6.60;;
3443;SDS011;1736;52.068;6.968;2022-10-22T00:12:59;8.10;;;6.47;;
3443;SDS011;1736;52.068;6.968;2022-10-22T00:15:26;11.40;;;7.77;;
3443;SDS011;1736;52.068;6.968;2022-10-22T00:17:52;8.77;;;6.53;;
3443;SDS011;1736;52.068;6.968;2022-10-22T00:20:19;13.23;;;6.57;;
3443;SDS011;1736;52.068;6.968;2022-10-22T00:22:46;15.63;;;7.07;;
3443;SDS011;1736;52.068;6.968;2022-10-22T00:25:13;11.13;;;7.03;;
3443;SDS011;1736;52.068;6.968;2022-10-22T00:27:41;12.50;;;7.43;;
3443;SDS011;1736;52.068;6.968;2022-10-22T00:30:08;9.40;;;6.73;;
3443;SDS011;1736;52.068;6.968;2022-10-22T00:32:35;11.90;;;6.63;;
3443;SDS011;1736;52.068;6.968;2022-10-22T00:35:02;16.00;;;6.90;;
3443;SDS011;1736;52.068;6.968;2022-10-22T00:37:29;10.97;;;6.67;;
3443;SDS011;1736;52.068;6.968;2022-10-22T00:39:56;8.97;;;6.77;;
3443;SDS011;1736;52.068;6.968;2022-10-22T00:42:24;10.30;;;6.80;;
3443;SDS011;1736;52.068;6.968;2022-10-22T00:45:03;11.40;;;7.20;;
3443;SDS011;1736;52.068;6.968;2022-10-22T00:47:34;10.87;;;7.00;;
3443;SDS011;1736;52.068;6.968;2022-10-22T00:50:02;14.37;;;6.60;;
3443;SDS011;1736;52.068;6.968;2022-10-22T00:52:32;20.90;;;7.30;;
3443;SDS011;1736;52.068;6.968;2022-10-22T00:54:59;13.40;;;7.40;;
3443;SDS011;1736;52.068;6.968;2022-10-22T00:57:26;12.83;;;6.90;;
3443;SDS011;1736;52.068;6.968;2022-10-22T00:59:53;10.10;;;6.43;;
3443;SDS011;1736;52.068;6.968;2022-10-22T01:02:24;10.00;;;6.17;;
3443;SDS011;1736;52.068;6.968;2022-10-22T01:04:51;12.93;;;6.43;;
3443;SDS011;1736;52.068;6.968;2022-10-22T01:07:18;12.80;;;6.80;;
3443;SDS011;1736;52.068;6.968;2022-10-22T01:09:48;7.50;;;5.80;;
3443;SDS011;1736;52.068;6.968;2022-10-22T01:12:22;9.77;;;6.33;;
3443;SDS011;1736;52.068;6.968;2022-10-22T01:15:01;9.43;;;6.60;;
3443;SDS011;1736;52.068;6.968;2022-10-22T01:17:39;13.97;;;7.40;;
3443;SDS011;1736;52.068;6.968;2022-10-22T01:20:13;7.37;;;6.07;;
3443;SDS011;1736;52.068;6.968;2022-10-22T01:22:57;13.87;;;6.40;;
3443;SDS011;1736;52.068;6.968;2022-10-22T01:25:36;10.57;;;7.07;;
3443;SDS011;1736;52.068;6.968;2022-10-22T01:28:13;14.77;;;6.77;;
3443;SDS011;1736;52.068;6.968;2022-10-22T01:30:47;11.23;;;7.33;;
3443;SDS011;1736;52.068;6.968;2022-10-22T01:33:16;14.23;;;6.70;;
3443;SDS011;1736;52.068;6.968;2022-10-22T01:35:44;11.20;;;6.87;;
3443;SDS011;1736;52.068;6.968;2022-10-22T01:38:11;8.63;;;6.20;;
3443;SDS011;1736;52.068;6.968;2022-10-22T01:40:41;10.93;;;6.13;;
3443;SDS011;1736;52.068;6.968;2022-10-22T01:43:08;11.70;;;7.40;;
3443;SDS011;1736;52.068;6.968;2022-10-22T01:45:37;7.63;;;6.50;;
3443;SDS011;1736;52.068;6.968;2022-10-22T01:48:10;8.90;;;6.57;;
3443;SDS011;1736;52.068;6.968;2022-10-22T01:53:46;10.90;;;6.93;;
3443;SDS011;1736;52.068;6.968;2022-10-22T01:56:26;9.53;;;6.80;;
3443;SDS011;1736;52.068;6.968;2022-10-22T01:59:03;8.90;;;6.93;;
3443;SDS011;1736;52.068;6.968;2022-10-22T02:01:40;10.90;;;7.17;;
3443;SDS011;1736;52.068;6.968;2022-10-22T02:04:16;9.83;;;6.53;;
3443;SDS011;1736;52.068;6.968;2022-10-22T02:06:45;12.73;;;6.57;;
3443;SDS011;1736;52.068;6.968;2022-10-22T02:09:15;15.37;;;7.90;;
3443;SDS011;1736;52.068;6.968;2022-10-22T02:11:45;11.33;;;7.20;;
3443;SDS011;1736;52.068;6.968;2022-10-22T02:14:14;10.87;;;7.07;;
3443;SDS011;1736;52.068;6.968;2022-10-22T02:16:43;9.00;;;6.00;;
3443;SDS011;1736;52.068;6.968;2022-10-22T02:19:13;16.80;;;7.00;;
3443;SDS011;1736;52.068;6.968;2022-10-22T02:21:47;11.33;;;6.83;;
3443;SDS011;1736;52.068;6.968;2022-10-22T02:24:14;9.50;;;6.83;;
3443;SDS011;1736;52.068;6.968;2022-10-22T02:26:43;11.10;;;6.40;;
3443;SDS011;1736;52.068;6.968;2022-10-22T02:29:19;10.07;;;6.67;;
3443;SDS011;1736;52.068;6.968;2022-10-22T02:31:50;9.00;;;6.90;;
3443;SDS011;1736;52.068;6.968;2022-10-22T02:34:20;12.50;;;6.63;;
3443;SDS011;1736;52.068;6.968;2022-10-22T02:36:51;20.23;;;8.67;;
3443;SDS011;1736;52.068;6.968;2022-10-22T02:39:19;9.30;;;6.47;;
3443;SDS011;1736;52.068;6.968;2022-10-22T02:41:46;10.20;;;6.50;;
3443;SDS011;1736;52.068;6.968;2022-10-22T02:44:13;10.70;;;7.13;;
3443;SDS011;1736;52.068;6.968;2022-10-22T02:46:40;8.90;;;5.80;;
3443;SDS011;1736;52.068;6.968;2022-10-22T02:49:08;11.00;;;6.97;;
3443;SDS011;1736;52.068;6.968;2022-10-22T02:51:35;13.43;;;6.90;;
3443;SDS011;1736;52.068;6.968;2022-10-22T02:54:02;12.20;;;7.13;;
3443;SDS011;1736;52.068;6.968;2022-10-22T02:56:29;11.17;;;7.60;;
3443;SDS011;1736;52.068;6.968;2022-10-22T02:58:55;11.10;;;6.47;;
3443;SDS011;1736;52.068;6.968;2022-10-22T03:01:22;14.13;;;6.43;;
3443;SDS011;1736;52.068;6.968;2022-10-22T03:03:48;16.00;;;6.90;;
3443;SDS011;1736;52.068;6.968;2022-10-22T03:06:15;9.93;;;6.73;;
3443;SDS011;1736;52.068;6.968;2022-10-22T03:08:44;12.10;;;7.20;;
3443;SDS011;1736;52.068;6.968;2022-10-22T03:11:10;11.33;;;6.90;;
3443;SDS011;1736;52.068;6.968;2022-10-22T03:13:37;12.30;;;6.97;;
3443;SDS011;1736;52.068;6.968;2022-10-22T03:16:04;10.37;;;7.43;;
3443;SDS011;1736;52.068;6.968;2022-10-22T03:18:31;12.90;;;7.70;;
3443;SDS011;1736;52.068;6.968;2022-10-22T03:20:59;14.93;;;8.13;;
3443;SDS011;1736;52.068;6.968;2022-10-22T03:23:29;11.90;;;7.23;;
3443;SDS011;1736;52.068;6.968;2022-10-22T03:25:58;16.43;;;8.27;;
3443;SDS011;1736;52.068;6.968;2022-10-22T03:28:25;20.40;;;8.30;;
3443;SDS011;1736;52.068;6.968;2022-10-22T03:30:51;11.67;;;7.43;;
3443;SDS011;1736;52.068;6.968;2022-10-22T03:33:18;14.03;;;8.27;;
3443;SDS011;1736;52.068;6.968;2022-10-22T03:35:45;11.70;;;7.23;;
3443;SDS011;1736;52.068;6.968;2022-10-22T03:38:12;14.37;;;7.90;;
3443;SDS011;1736;52.068;6.968;2022-10-22T03:40:40;11.30;;;7.67;;
3443;SDS011;1736;52.068;6.968;2022-10-22T03:43:10;9.47;;;7.20;;
3443;SDS011;1736;52.068;6.968;2022-10-22T03:45:37;12.80;;;7.90;;
3443;SDS011;1736;52.068;6.968;2022-10-22T03:48:03;8.63;;;6.80;;
3443;SDS011;1736;52.068;6.968;2022-10-22T03:50:30;12.00;;;7.83;;
3443;SDS011;1736;52.068;6.968;2022-10-22T03:52:57;11.10;;;8.57;;
3443;SDS011;1736;52.068;6.968;2022-10-22T03:55:24;11.97;;;7.93;;
3443;SDS011;1736;52.068;6.968;2022-10-22T03:57:50;12.53;;;8.73;;
3443;SDS011;1736;52.068;6.968;2022-10-22T04:00:18;10.50;;;7.60;;
3443;SDS011;1736;52.068;6.968;2022-10-22T04:02:45;16.87;;;7.77;;
3443;SDS011;1736;52.068;6.968;2022-10-22T04:05:11;13.43;;;8.13;;
3443;SDS011;1736;52.068;6.968;2022-10-22T04:07:38;14.90;;;8.50;;
3443;SDS011;1736;52.068;6.968;2022-10-22T04:10:05;12.70;;;8.03;;
3443;SDS011;1736;52.068;6.968;2022-10-22T04:12:32;11.17;;;7.97;;
3443;SDS011;1736;52.068;6.968;2022-10-22T04:14:58;12.00;;;7.43;;
3443;SDS011;1736;52.068;6.968;2022-10-22T04:17:26;9.63;;;7.03;;
3443;SDS011;1736;52.068;6.968;2022-10-22T04:19:58;13.10;;;7.90;;
3443;SDS011;1736;52.068;6.968;2022-10-22T04:22:25;14.13;;;8.30;;
3443;SDS011;1736;52.068;6.968;2022-10-22T04:24:51;13.43;;;8.77;;
3443;SDS011;1736;52.068;6.968;2022-10-22T04:27:17;10.40;;;7.80;;
3443;SDS011;1736;52.068;6.968;2022-10-22T04:29:44;12.03;;;7.77;;
3443;SDS011;1736;52.068;6.968;2022-10-22T04:32:11;17.80;;;8.27;;
3443;SDS011;1736;52.068;6.968;2022-10-22T04:34:38;16.20;;;9.30;;
3443;SDS011;1736;52.068;6.968;2022-10-22T04:37:05;15.37;;;9.10;;
3443;SDS011;1736;52.068;6.968;2022-10-22T04:39:31;15.90;;;8.63;;
3443;SDS011;1736;52.068;6.968;2022-10-22T04:41:58;14.30;;;8.93;;
3443;SDS011;1736;52.068;6.968;2022-10-22T04:44:24;21.03;;;8.87;;
3443;SDS011;1736;52.068;6.968;2022-10-22T04:46:51;19.10;;;9.30;;
3443;SDS011;1736;52.068;6.968;2022-10-22T04:49:17;14.30;;;8.63;;
3443;SDS011;1736;52.068;6.968;2022-10-22T04:51:45;13.40;;;8.37;;
3443;SDS011;1736;52.068;6.968;2022-10-22T04:54:12;13.70;;;8.57;;
3443;SDS011;1736;52.068;6.968;2022-10-22T04:56:38;14.07;;;8.47;;
3443;SDS011;1736;52.068;6.968;2022-10-22T04:59:06;16.50;;;8.73;;
3443;SDS011;1736;52.068;6.968;2022-10-22T05:01:33;13.43;;;8.93;;
3443;SDS011;1736;52.068;6.968;2022-10-22T05:04:01;16.87;;;9.80;;
3443;SDS011;1736;52.068;6.968;2022-10-22T05:06:30;13.73;;;9.30;;
3443;SDS011;1736;52.068;6.968;2022-10-22T05:09:00;15.37;;;9.53;;
3443;SDS011;1736;52.068;6.968;2022-10-22T05:11:30;14.87;;;8.50;;
3443;SDS011;1736;52.068;6.968;2022-10-22T05:13:58;21.80;;;9.80;;
3443;SDS011;1736;52.068;6.968;2022-10-22T05:16:27;15.40;;;9.93;;
3443;SDS011;1736;52.068;6.968;2022-10-22T05:18:54;14.90;;;9.53;;
3443;SDS011;1736;52.068;6.968;2022-10-22T05:21:20;20.23;;;9.13;;
3443;SDS011;1736;52.068;6.968;2022-10-22T05:23:47;24.00;;;9.40;;
3443;SDS011;1736;52.068;6.968;2022-10-22T05:26:17;21.10;;;9.63;;
3443;SDS011;1736;52.068;6.968;2022-10-22T05:28:45;51.80;;;10.80;;
3443;SDS011;1736;52.068;6.968;2022-10-22T05:31:12;15.27;;;9.20;;
3443;SDS011;1736;52.068;6.968;2022-10-22T05:33:40;20.97;;;9.77;;
3443;SDS011;1736;52.068;6.968;2022-10-22T05:36:08;15.17;;;9.33;;
3443;SDS011;1736;52.068;6.968;2022-10-22T05:38:37;21.60;;;10.70;;
3443;SDS011;1736;52.068;6.968;2022-10-22T05:41:04;16.63;;;9.57;;
3443;SDS011;1736;52.068;6.968;2022-10-22T05:43:34;18.00;;;9.43;;
3443;SDS011;1736;52.068;6.968;2022-10-22T05:46:01;20.53;;;11.20;;
3443;SDS011;1736;52.068;6.968;2022-10-22T05:48:29;19.67;;;10.00;;
3443;SDS011;1736;52.068;6.968;2022-10-22T05:50:55;21.23;;;10.77;;
3443;SDS011;1736;52.068;6.968;2022-10-22T05:53:28;17.47;;;9.70;;
3443;SDS011;1736;52.068;6.968;2022-10-22T05:55:54;20.67;;;10.40;;
3443;SDS011;1736;52.068;6.968;2022-10-22T05:58:21;22.00;;;10.63;;
3443;SDS011;1736;52.068;6.968;2022-10-22T06:00:49;18.50;;;11.10;;
3443;SDS011;1736;52.068;6.968;2022-10-22T06:03:15;22.37;;;11.10;;
3443;SDS011;1736;52.068;6.968;2022-10-22T06:05:42;18.83;;;10.53;;
3443;SDS011;1736;52.068;6.968;2022-10-22T06:08:08;19.20;;;10.13;;
3443;SDS011;1736;52.068;6.968;2022-10-22T06:10:38;15.90;;;9.30;;
3443;SDS011;1736;52.068;6.968;2022-10-22T06:13:07;20.93;;;10.20;;
3443;SDS011;1736;52.068;6.968;2022-10-22T06:15:34;15.20;;;9.90;;
3443;SDS011;1736;52.068;6.968;2022-10-22T06:18:02;19.10;;;9.83;;
3443;SDS011;1736;52.068;6.968;2022-10-22T06:20:29;16.97;;;10.50;;
3443;SDS011;1736;52.068;6.968;2022-10-22T06:22:55;14.97;;;9.87;;
3443;SDS011;1736;52.068;6.968;2022-10-22T06:25:21;14.23;;;9.07;;
3443;SDS011;1736;52.068;6.968;2022-10-22T06:27:48;16.70;;;8.57;;
3443;SDS011;1736;52.068;6.968;2022-10-22T06:30:15;27.80;;;8.80;;
3443;SDS011;1736;52.068;6.968;2022-10-22T06:32:42;15.60;;;8.83;;
3443;SDS011;1736;52.068;6.968;2022-10-22T06:35:10;18.30;;;8.50;;
3443;SDS011;1736;52.068;6.968;2022-10-22T06:37:36;17.50;;;8.80;;
3443;SDS011;1736;52.068;6.968;2022-10-22T06:40:03;16.90;;;8.47;;
3443;SDS011;1736;52.068;6.968;2022-10-22T06:42:30;18.23;;;8.50;;
3443;SDS011;1736;52.068;6.968;2022-10-22T06:44:56;17.60;;;9.03;;
3443;SDS011;1736;52.068;6.968;2022-10-22T06:47:23;23.87;;;8.60;;
3443;SDS011;1736;52.068;6.968;2022-10-22T06:49:49;23.90;;;9.27;;
3443;SDS011;1736;52.068;6.968;2022-10-22T06:52:17;15.00;;;8.90;;
3443;SDS011;1736;52.068;6.968;2022-10-22T06:54:44;17.40;;;8.60;;
3443;SDS011;1736;52.068;6.968;2022-10-22T06:57:10;15.20;;;8.50;;
3443;SDS011;1736;52.068;6.968;2022-10-22T06:59:37;26.73;;;10.10;;
3443;SDS011;1736;52.068;6.968;2022-10-22T07:02:03;20.13;;;8.37;;
3443;SDS011;1736;52.068;6.968;2022-10-22T07:04:30;18.60;;;9.30;;
3443;SDS011;1736;52.068;6.968;2022-10-22T07:06:56;22.00;;;9.13;;
3443;SDS011;1736;52.068;6.968;2022-10-22T07:09:24;18.23;;;10.47;;
3443;SDS011;1736;52.068;6.968;2022-10-22T07:11:51;18.87;;;9.93;;
3443;SDS011;1736;52.068;6.968;2022-10-22T07:14:17;14.80;;;9.60;;
3443;SDS011;1736;52.068;6.968;2022-10-22T07:16:44;18.90;;;9.00;;
3443;SDS011;1736;52.068;6.968;2022-10-22T07:19:11;21.03;;;9.30;;
3443;SDS011;1736;52.068;6.968;2022-10-22T07:21:38;22.27;;;8.90;;
3443;SDS011;1736;52.068;6.968;2022-10-22T07:24:05;14.07;;;8.37;;
3443;SDS011;1736;52.068;6.968;2022-10-22T07:26:33;16.53;;;8.17;;
3443;SDS011;1736;52.068;6.968;2022-10-22T07:29:01;13.23;;;7.50;;
3443;SDS011;1736;52.068;6.968;2022-10-22T07:31:28;15.57;;;8.00;;
3443;SDS011;1736;52.068;6.968;2022-10-22T07:33:54;14.47;;;7.43;;
3443;SDS011;1736;52.068;6.968;2022-10-22T07:36:21;17.10;;;8.27;;
3443;SDS011;1736;52.068;6.968;2022-10-22T07:38:48;18.67;;;7.53;;
3443;SDS011;1736;52.068;6.968;2022-10-22T07:41:20;13.40;;;6.70;;
3443;SDS011;1736;52.068;6.968;2022-10-22T07:43:49;11.77;;;7.90;;
3443;SDS011;1736;52.068;6.968;2022-10-22T07:46:15;14.40;;;7.50;;
3443;SDS011;1736;52.068;6.968;2022-10-22T07:48:42;10.93;;;6.80;;
3443;SDS011;1736;52.068;6.968;2022-10-22T07:51:08;9.33;;;5.97;;
3443;SDS011;1736;52.068;6.968;2022-10-22T07:53:35;11.90;;;6.27;;
3443;SDS011;1736;52.068;6.968;2022-10-22T07:56:02;15.57;;;5.80;;
3443;SDS011;1736;52.068;6.968;2022-10-22T07:58:29;8.07;;;5.73;;
3443;SDS011;1736;52.068;6.968;2022-10-22T08:00:57;9.90;;;5.20;;
3443;SDS011;1736;52.068;6.968;2022-10-22T08:03:26;9.23;;;5.07;;
3443;SDS011;1736;52.068;6.968;2022-10-22T08:05:53;7.90;;;4.73;;
3443;SDS011;1736;52.068;6.968;2022-10-22T08:08:19;9.10;;;4.90;;
3443;SDS011;1736;52.068;6.968;2022-10-22T08:10:46;25.63;;;4.70;;
3443;SDS011;1736;52.068;6.968;2022-10-22T08:13:16;9.43;;;4.63;;
3443;SDS011;1736;52.068;6.968;2022-10-22T08:15:43;10.27;;;4.97;;
3443;SDS011;1736;52.068;6.968;2022-10-22T08:18:12;10.87;;;4.73;;
3443;SDS011;1736;52.068;6.968;2022-10-22T08:20:38;7.20;;;4.73;;
3443;SDS011;1736;52.068;6.968;2022-10-22T08:23:08;9.23;;;4.70;;
3443;SDS011;1736;52.068;6.968;2022-10-22T08:25:36;11.40;;;4.47;;
3443;SDS011;1736;52.068;6.968;2022-10-22T08:28:02;10.20;;;4.20;;
3443;SDS011;1736;52.068;6.968;2022-10-22T08:30:29;7.93;;;4.33;;
3443;SDS011;1736;52.068;6.968;2022-10-22T08:32:57;10.13;;;4.50;;
3443;SDS011;1736;52.068;6.968;2022-10-22T08:35:26;10.90;;;4.57;;
3443;SDS011;1736;52.068;6.968;2022-10-22T08:37:52;10.27;;;4.60;;
3443;SDS011;1736;52.068;6.968;2022-10-22T08:40:20;12.20;;;4.40;;
3443;SDS011;1736;52.068;6.968;2022-10-22T08:46:02;12.93;;;4.40;;
3443;SDS011;1736;52.068;6.968;2022-10-22T08:48:40;8.10;;;4.00;;
3443;SDS011;1736;52.068;6.968;2022-10-22T08:51:14;10.47;;;4.30;;
3443;SDS011;1736;52.068;6.968;2022-10-22T08:53:44;12.87;;;4.20;;
3443;SDS011;1736;52.068;6.968;2022-10-22T08:56:26;8.87;;;3.70;;
3443;SDS011;1736;52.068;6.968;2022-10-22T08:58:54;12.17;;;4.47;;
3443;SDS011;1736;52.068;6.968;2022-10-22T09:01:30;8.90;;;4.00;;
3443;SDS011;1736;52.068;6.968;2022-10-22T09:04:01;8.90;;;3.57;;
3443;SDS011;1736;52.068;6.968;2022-10-22T09:06:37;5.77;;;3.17;;
3443;SDS011;1736;52.068;6.968;2022-10-22T09:09:09;7.63;;;3.13;;
3443;SDS011;1736;52.068;6.968;2022-10-22T09:11:41;7.97;;;3.60;;
3443;SDS011;1736;52.068;6.968;2022-10-22T09:14:10;5.30;;;3.00;;
3443;SDS011;1736;52.068;6.968;2022-10-22T09:16:42;6.67;;;3.53;;
3443;SDS011;1736;52.068;6.968;2022-10-22T09:19:25;8.80;;;2.87;;
3443;SDS011;1736;52.068;6.968;2022-10-22T09:22:00;13.40;;;3.30;;
3443;SDS011;1736;52.068;6.968;2022-10-22T09:24:37;5.17;;;2.97;;
3443;SDS011;1736;52.068;6.968;2022-10-22T09:27:08;6.90;;;3.10;;
3443;SDS011;1736;52.068;6.968;2022-10-22T09:29:37;9.50;;;3.60;;
3443;SDS011;1736;52.068;6.968;2022-10-22T09:32:04;7.13;;;2.73;;
3443;SDS011;1736;52.068;6.968;2022-10-22T09:34:30;5.03;;;2.50;;
3443;SDS011;1736;52.068;6.968;2022-10-22T09:36:58;8.00;;;2.87;;
3443;SDS011;1736;52.068;6.968;2022-10-22T09:39:27;5.80;;;2.60;;
3443;SDS011;1736;52.068;6.968;2022-10-22T09:41:57;7.37;;;2.80;;
3443;SDS011;1736;52.068;6.968;2022-10-22T09:44:23;10.17;;;2.80;;
3443;SDS011;1736;52.068;6.968;2022-10-22T09:46:50;8.60;;;2.87;;
3443;SDS011;1736;52.068;6.968;2022-10-22T09:49:17;8.83;;;2.87;;
3443;SDS011;1736;52.068;6.968;2022-10-22T09:51:51;9.60;;;2.80;;
3443;SDS011;1736;52.068;6.968;2022-10-22T09:54:21;4.87;;;2.60;;
3443;SDS011;1736;52.068;6.968;2022-10-22T09:56:50;8.23;;;3.20;;
3443;SDS011;1736;52.068;6.968;2022-10-22T09:59:23;12.20;;;3.00;;
3443;SDS011;1736;52.068;6.968;2022-10-22T10:01:56;8.50;;;2.80;;
3443;SDS011;1736;52.068;6.968;2022-10-22T10:04:29;5.60;;;2.47;;
3443;SDS011;1736;52.068;6.968;2022-10-22T10:06:59;6.50;;;2.37;;
3443;SDS011;1736;52.068;6.968;2022-10-22T10:09:28;7.03;;;3.37;;
3443;SDS011;1736;52.068;6.968;2022-10-22T10:11:59;5.83;;;3.17;;
3443;SDS011;1736;52.068;6.968;2022-10-22T10:14:34;8.07;;;2.60;;
3443;SDS011;1736;52.068;6.968;2022-10-22T10:17:08;6.17;;;2.70;;
3443;SDS011;1736;52.068;6.968;2022-10-22T10:22:52;11.67;;;2.80;;
3443;SDS011;1736;52.068;6.968;2022-10-22T10:25:26;13.17;;;2.40;;
3443;SDS011;1736;52.068;6.968;2022-10-22T10:28:03;6.17;;;2.63;;
3443;SDS011;1736;52.068;6.968;2022-10-22T10:30:40;4.33;;;2.43;;
3443;SDS011;1736;52.068;6.968;2022-10-22T10:33:15;6.50;;;2.63;;
3443;SDS011;1736;52.068;6.968;2022-10-22T10:35:50;7.83;;;3.00;;
3443;SDS011;1736;52.068;6.968;2022-10-22T10:38:33;10.83;;;2.73;;
3443;SDS011;1736;52.068;6.968;2022-10-22T10:41:09;8.47;;;2.37;;
3443;SDS011;1736;52.068;6.968;2022-10-22T10:43:47;3.80;;;2.53;;
3443;SDS011;1736;52.068;6.968;2022-10-22T10:46:24;8.10;;;2.60;;
3443;SDS011;1736;52.068;6.968;2022-10-22T10:48:59;12.87;;;2.43;;
3443;SDS011;1736;52.068;6.968;2022-10-22T10:51:36;4.63;;;2.50;;
3443;SDS011;1736;52.068;6.968;2022-10-22T10:54:22;8.90;;;3.13;;
3443;SDS011;1736;52.068;6.968;2022-10-22T10:56:59;17.67;;;3.10;;
3443;SDS011;1736;52.068;6.968;2022-10-22T10:59:35;8.47;;;2.70;;
3443;SDS011;1736;52.068;6.968;2022-10-22T11:02:20;4.30;;;2.57;;
3443;SDS011;1736;52.068;6.968;2022-10-22T11:05:14;5.50;;;2.73;;
3443;SDS011;1736;52.068;6.968;2022-10-22T11:08:01;11.67;;;3.40;;
3443;SDS011;1736;52.068;6.968;2022-10-22T11:10:33;7.07;;;3.07;;
3443;SDS011;1736;52.068;6.968;2022-10-22T11:13:07;9.70;;;3.20;;
3443;SDS011;1736;52.068;6.968;2022-10-22T11:15:39;4.87;;;3.00;;
3443;SDS011;1736;52.068;6.968;2022-10-22T11:18:11;6.33;;;3.50;;
3443;SDS011;1736;52.068;6.968;2022-10-22T11:20:45;4.17;;;2.27;;
3443;SDS011;1736;52.068;6.968;2022-10-22T11:23:17;6.70;;;3.03;;
3443;SDS011;1736;52.068;6.968;2022-10-22T11:25:49;5.27;;;2.70;;
3443;SDS011;1736;52.068;6.968;2022-10-22T11:28:19;11.13;;;3.07;;
3443;SDS011;1736;52.068;6.968;2022-10-22T11:30:50;7.57;;;3.00;;
3443;SDS011;1736;52.068;6.968;2022-10-22T11:33:23;7.67;;;3.20;;
3443;SDS011;1736;52.068;6.968;2022-10-22T11:35:55;8.17;;;2.90;;
3443;SDS011;1736;52.068;6.968;2022-10-22T11:38:24;5.40;;;2.50;;
3443;SDS011;1736;52.068;6.968;2022-10-22T11:40:55;8.00;;;3.53;;
3443;SDS011;1736;52.068;6.968;2022-10-22T11:43:29;10.63;;;3.53;;
3443;SDS011;1736;52.068;6.968;2022-10-22T11:46:00;6.90;;;2.83;;
3443;SDS011;1736;52.068;6.968;2022-10-22T11:48:36;6.70;;;3.13;;
3443;SDS011;1736;52.068;6.968;2022-10-22T11:51:03;8.00;;;3.47;;
3443;SDS011;1736;52.068;6.968;2022-10-22T11:53:58;11.73;;;4.17;;
3443;SDS011;1736;52.068;6.968;2022-10-22T11:56:35;11.70;;;4.10;;
3443;SDS011;1736;52.068;6.968;2022-10-22T11:59:04;9.63;;;4.00;;
3443;SDS011;1736;52.068;6.968;2022-10-22T12:01:54;14.00;;;3.80;;
3443;SDS011;1736;52.068;6.968;2022-10-22T12:04:21;5.93;;;3.53;;
3443;SDS011;1736;52.068;6.968;2022-10-22T12:06:51;6.20;;;3.80;;
3443;SDS011;1736;52.068;6.968;2022-10-22T12:09:19;8.10;;;4.30;;
3443;SDS011;1736;52.068;6.968;2022-10-22T12:11:50;5.50;;;3.97;;
3443;SDS011;1736;52.068;6.968;2022-10-22T12:14:19;11.13;;;4.47;;
3443;SDS011;1736;52.068;6.968;2022-10-22T12:16:51;9.73;;;4.57;;
3443;SDS011;1736;52.068;6.968;2022-10-22T12:19:23;10.77;;;4.93;;
3443;SDS011;1736;52.068;6.968;2022-10-22T12:21:52;12.07;;;5.30;;
3443;SDS011;1736;52.068;6.968;2022-10-22T12:24:21;10.43;;;4.80;;
3443;SDS011;1736;52.068;6.968;2022-10-22T12:26:49;8.23;;;4.70;;
3443;SDS011;1736;52.068;6.968;2022-10-22T12:29:17;10.70;;;3.90;;
3443;SDS011;1736;52.068;6.968;2022-10-22T12:31:47;8.20;;;4.00;;
3443;SDS011;1736;52.068;6.968;2022-10-22T12:34:15;8.23;;;4.30;;
3443;SDS011;1736;52.068;6.968;2022-10-22T12:36:43;9.40;;;4.83;;
3443;SDS011;1736;52.068;6.968;2022-10-22T12:39:13;8.50;;;5.20;;
3443;SDS011;1736;52.068;6.968;2022-10-22T12:41:41;6.93;;;4.27;;
3443;SDS011;1736;52.068;6.968;2022-10-22T12:44:12;9.00;;;4.50;;
3443;SDS011;1736;52.068;6.968;2022-10-22T12:46:41;4.90;;;3.80;;
3443;SDS011;1736;52.068;6.968;2022-10-22T12:49:12;5.13;;;3.90;;
3443;SDS011;1736;52.068;6.968;2022-10-22T12:51:40;13.00;;;5.37;;
3443;SDS011;1736;52.068;6.968;2022-10-22T12:54:08;12.13;;;4.97;;
3443;SDS011;1736;52.068;6.968;2022-10-22T12:56:40;14.30;;;4.43;;
3443;SDS011;1736;52.068;6.968;2022-10-22T12:59:08;6.40;;;3.83;;
3443;SDS011;1736;52.068;6.968;2022-10-22T13:01:42;9.70;;;4.07;;
3443;SDS011;1736;52.068;6.968;2022-10-22T13:04:18;10.53;;;3.97;;
3443;SDS011;1736;52.068;6.968;2022-10-22T13:06:47;11.50;;;3.47;;
3443;SDS011;1736;52.068;6.968;2022-10-22T13:09:15;7.97;;;4.07;;
3443;SDS011;1736;52.068;6.968;2022-10-22T13:11:47;6.60;;;3.93;;
3443;SDS011;1736;52.068;6.968;2022-10-22T13:14:21;10.93;;;3.87;;
3443;SDS011;1736;52.068;6.968;2022-10-22T13:17:03;11.87;;;4.23;;
3443;SDS011;1736;52.068;6.968;2022-10-22T13:19:34;13.20;;;3.40;;
3443;SDS011;1736;52.068;6.968;2022-10-22T13:22:03;9.87;;;3.50;;
3443;SDS011;1736;52.068;6.968;2022-10-22T13:24:30;8.87;;;3.60;;
3443;SDS011;1736;52.068;6.968;2022-10-22T13:26:56;8.17;;;4.40;;
3443;SDS011;1736;52.068;6.968;2022-10-22T13:29:23;5.97;;;4.00;;
3443;SDS011;1736;52.068;6.968;2022-10-22T13:31:50;10.60;;;4.20;;
3443;SDS011;1736;52.068;6.968;2022-10-22T13:34:20;14.00;;;3.93;;
3443;SDS011;1736;52.068;6.968;2022-10-22T13:36:49;8.23;;;3.77;;
3443;SDS011;1736;52.068;6.968;2022-10-22T13:39:17;9.27;;;4.30;;
3443;SDS011;1736;52.068;6.968;2022-10-22T13:41:44;8.30;;;3.80;;
3443;SDS011;1736;52.068;6.968;2022-10-22T13:44:11;3.70;;;3.17;;
3443;SDS011;1736;52.068;6.968;2022-10-22T13:46:37;5.47;;;3.13;;
3443;SDS011;1736;52.068;6.968;2022-10-22T13:49:08;10.40;;;4.27;;
3443;SDS011;1736;52.068;6.968;2022-10-22T13:51:41;9.43;;;3.97;;
3443;SDS011;1736;52.068;6.968;2022-10-22T13:54:09;7.37;;;4.00;;
3443;SDS011;1736;52.068;6.968;2022-10-22T13:56:40;11.27;;;3.80;;
3443;SDS011;1736;52.068;6.968;2022-10-22T13:59:07;12.93;;;3.47;;
3443;SDS011;1736;52.068;6.968;2022-10-22T14:01:34;7.83;;;3.50;;
3443;SDS011;1736;52.068;6.968;2022-10-22T14:04:02;7.77;;;3.40;;
3443;SDS011;1736;52.068;6.968;2022-10-22T14:06:31;14.50;;;3.93;;
3443;SDS011;1736;52.068;6.968;2022-10-22T14:09:01;7.47;;;3.63;;
3443;SDS011;1736;52.068;6.968;2022-10-22T14:11:30;8.70;;;3.40;;
3443;SDS011;1736;52.068;6.968;2022-10-22T14:13:56;10.37;;;3.40;;
3443;SDS011;1736;52.068;6.968;2022-10-22T14:16:25;9.07;;;4.30;;
3443;SDS011;1736;52.068;6.968;2022-10-22T14:18:52;12.77;;;3.93;;
3443;SDS011;1736;52.068;6.968;2022-10-22T14:21:20;6.70;;;3.93;;
3443;SDS011;1736;52.068;6.968;2022-10-22T14:23:47;9.50;;;4.67;;
3443;SDS011;1736;52.068;6.968;2022-10-22T14:26:19;6.50;;;3.77;;
3443;SDS011;1736;52.068;6.968;2022-10-22T14:28:49;8.67;;;3.43;;
3443;SDS011;1736;52.068;6.968;2022-10-22T14:31:15;10.37;;;3.40;;
3443;SDS011;1736;52.068;6.968;2022-10-22T14:33:42;7.50;;;3.80;;
3443;SDS011;1736;52.068;6.968;2022-10-22T14:36:10;10.30;;;3.60;;
3443;SDS011;1736;52.068;6.968;2022-10-22T14:38:38;7.17;;;3.00;;
3443;SDS011;1736;52.068;6.968;2022-10-22T14:41:07;6.83;;;3.27;;
3443;SDS011;1736;52.068;6.968;2022-10-22T14:43:43;10.00;;;3.67;;
3443;SDS011;1736;52.068;6.968;2022-10-22T14:46:10;11.37;;;3.10;;
3443;SDS011;1736;52.068;6.968;2022-10-22T14:48:39;9.43;;;3.43;;
3443;SDS011;1736;52.068;6.968;2022-10-22T14:51:06;4.50;;;3.37;;
3443;SDS011;1736;52.068;6.968;2022-10-22T14:53:32;5.80;;;3.23;;
3443;SDS011;1736;52.068;6.968;2022-10-22T14:55:59;11.40;;;3.70;;
3443;SDS011;1736;52.068;6.968;2022-10-22T14:58:26;4.93;;;3.07;;
3443;SDS011;1736;52.068;6.968;2022-10-22T15:00:53;14.87;;;4.13;;
3443;SDS011;1736;52.068;6.968;2022-10-22T15:03:20;4.93;;;3.00;;
3443;SDS011;1736;52.068;6.968;2022-10-22T15:05:49;5.17;;;2.87;;
3443;SDS011;1736;52.068;6.968;2022-10-22T15:08:17;10.50;;;3.50;;
3443;SDS011;1736;52.068;6.968;2022-10-22T15:10:44;9.80;;;3.50;;
3443;SDS011;1736;52.068;6.968;2022-10-22T15:13:10;10.77;;;3.53;;
3443;SDS011;1736;52.068;6.968;2022-10-22T15:15:38;7.10;;;3.30;;
3443;SDS011;1736;52.068;6.968;2022-10-22T15:18:06;5.13;;;3.10;;
3443;SDS011;1736;52.068;6.968;2022-10-22T15:20:33;8.33;;;3.33;;
3443;SDS011;1736;52.068;6.968;2022-10-22T15:22:59;9.97;;;3.57;;
3443;SDS011;1736;52.068;6.968;2022-10-22T15:25:26;8.97;;;4.13;;
3443;SDS011;1736;52.068;6.968;2022-10-22T15:27:53;15.13;;;7.03;;